Time;durP1;ratioP1;P1;durP2;ratioP2;P2;SDS_P1;SDS_P2;PMS_P1;PMS_P2;Temp;Humidity;BMP_temperature;BMP_pressure;BME280_temperature;BME280_humidity;BME280_pressure;Samples;Min_cycle;Max_cycle;Signal;HPM_P1;HPM_P2
2021/04/04 00:01:27;;;;;;;16.58;3.55;;;;;;;5.27;58.52;102756.91;5012218;28;20528;-55
2021/04/04 00:03:54;;;;;;;11.43;3.08;;;;;;;5.30;58.63;102748.19;5013665;28;20120;-53
2021/04/04 00:06:21;;;;;;;20.35;3.58;;;;;;;5.26;58.76;102763.00;5013640;28;20037;-54
2021/04/04 00:08:48;;;;;;;23.80;3.83;;;;;;;5.24;58.93;102744.75;5012477;28;20144;-54
2021/04/04 00:11:14;;;;;;;16.77;3.30;;;;;;;5.28;59.04;102753.41;5012247;28;20069;-55
2021/04/04 00:13:41;;;;;;;15.63;3.38;;;;;;;5.37;58.55;102753.31;5012317;28;20496;-54
2021/04/04 00:16:08;;;;;;;14.63;3.22;;;;;;;5.43;58.03;102749.75;4979589;28;20520;-55
2021/04/04 00:18:36;;;;;;;14.82;2.92;;;;;;;5.46;58.70;102754.06;5011483;28;20133;-55
2021/04/04 00:21:04;;;;;;;17.73;3.33;;;;;;;5.42;58.67;102742.81;5013342;28;20400;-55
2021/04/04 00:23:30;;;;;;;20.63;3.60;;;;;;;5.31;58.76;102736.88;5028557;28;20121;-52
2021/04/04 00:25:57;;;;;;;15.75;2.88;;;;;;;5.34;58.89;102742.91;5012983;28;20565;-54
2021/04/04 00:28:24;;;;;;;20.25;2.80;;;;;;;5.34;58.90;102737.66;4995259;28;20397;-54
2021/04/04 00:30:50;;;;;;;15.20;2.70;;;;;;;5.39;58.57;102737.63;5011333;28;20061;-55
2021/04/04 00:33:18;;;;;;;23.17;3.30;;;;;;;5.49;58.56;102736.59;5012517;28;20042;-55
2021/04/04 00:35:44;;;;;;;14.23;3.10;;;;;;;5.47;58.79;102738.41;5013011;28;20042;-55
2021/04/04 00:38:11;;;;;;;14.65;3.65;;;;;;;5.39;58.75;102732.41;5011759;28;20046;-54
2021/04/04 00:40:38;;;;;;;15.40;2.97;;;;;;;5.39;59.08;102729.81;5012741;28;20128;-54
2021/04/04 00:43:06;;;;;;;19.13;3.10;;;;;;;5.37;59.40;102734.16;5027705;28;20056;-55
2021/04/04 00:45:35;;;;;;;17.48;3.20;;;;;;;5.47;59.00;102738.41;5011704;28;20373;-54
2021/04/04 00:48:05;;;;;;;17.23;3.00;;;;;;;5.52;58.75;102733.97;5012907;28;20610;-54
2021/04/04 00:50:37;;;;;;;18.85;3.00;;;;;;;5.56;58.76;102733.06;5011359;28;20046;-55
2021/04/04 00:53:05;;;;;;;19.55;3.20;;;;;;;5.47;58.98;102725.34;5011701;28;20069;-55
2021/04/04 00:55:36;;;;;;;16.33;2.95;;;;;;;5.61;58.88;102725.16;5011681;28;20104;-55
2021/04/04 00:58:03;;;;;;;15.70;3.38;;;;;;;5.54;58.72;102726.97;5007097;28;20453;-54
2021/04/04 01:00:33;;;;;;;17.10;3.20;;;;;;;5.47;59.33;102727.06;5010394;28;20037;-54
2021/04/04 01:02:59;;;;;;;15.75;3.58;;;;;;;5.38;59.37;102731.53;5012187;28;20050;-55
2021/04/04 01:05:31;;;;;;;12.35;3.08;;;;;;;5.39;58.91;102732.41;4995107;28;20124;-54
2021/04/04 01:07:58;;;;;;;15.13;3.70;;;;;;;5.44;59.53;102733.22;5012356;28;20049;-56
2021/04/04 01:10:33;;;;;;;13.70;2.78;;;;;;;5.50;59.43;102727.91;5027916;28;20044;-54
2021/04/04 01:13:21;;;;;;;19.58;3.30;;;;;;;5.47;59.42;102732.28;4987052;28;20405;-55
2021/04/04 01:15:50;;;;;;;15.52;3.13;;;;;;;5.48;59.81;102729.69;5012574;28;20132;-52
2021/04/04 01:18:23;;;;;;;16.10;3.50;;;;;;;5.54;59.08;102732.19;5012560;28;20044;-55
2021/04/04 01:20:51;;;;;;;14.27;2.78;;;;;;;5.54;59.33;102726.97;5010948;28;20069;-55
2021/04/04 01:23:48;;;;;;;13.68;2.85;;;;;;;5.46;59.90;102722.75;5011091;28;20049;-54
2021/04/04 01:26:51;;;;;;;13.00;2.70;;;;;;;5.38;59.62;102728.06;5012198;28;20052;-55
2021/04/04 01:29:20;;;;;;;14.80;3.80;;;;;;;5.41;59.83;102723.69;5011888;28;20099;-56
2021/04/04 01:31:48;;;;;;;17.17;3.22;;;;;;;5.32;60.21;102718.59;5010492;28;20046;-56
2021/04/04 01:34:15;;;;;;;14.98;3.60;;;;;;;5.36;60.13;102719.41;5010690;28;20038;-55
2021/04/04 01:36:42;;;;;;;12.88;3.45;;;;;;;5.27;60.56;102720.38;5011342;28;20073;-55
2021/04/04 01:39:10;;;;;;;11.43;2.92;;;;;;;5.31;61.05;102714.25;4994414;28;20057;-55
2021/04/04 01:41:39;;;;;;;24.10;3.38;;;;;;;5.38;60.29;102723.69;5010691;28;20077;-53
2021/04/04 01:44:17;;;;;;;18.92;4.25;;;;;;;5.39;60.66;102714.16;4990324;28;20109;-53
2021/04/04 01:46:46;;;;;;;15.65;3.22;;;;;;;5.53;59.96;102711.34;4991230;28;20054;-55
2021/04/04 01:49:14;;;;;;;14.38;3.17;;;;;;;5.41;60.21;102714.97;4990858;28;20042;-54
2021/04/04 01:51:42;;;;;;;18.48;3.05;;;;;;;5.41;60.59;102710.63;4991034;28;20097;-55
2021/04/04 01:54:13;;;;;;;13.80;3.10;;;;;;;5.52;60.64;102714.81;4990457;28;20150;-54
2021/04/04 01:56:41;;;;;;;13.80;2.88;;;;;;;5.46;60.79;102707.94;4991011;28;20077;-55
2021/04/04 01:59:09;;;;;;;16.13;3.85;;;;;;;5.31;60.66;102709.03;5002688;28;20073;-56
2021/04/04 02:01:36;;;;;;;15.82;3.45;;;;;;;5.41;60.58;102704.53;5026359;28;20041;-53
2021/04/04 02:04:07;;;;;;;18.25;3.25;;;;;;;5.42;60.31;102701.91;5010202;28;20172;-54
2021/04/04 02:06:35;;;;;;;15.52;2.83;;;;;;;5.47;60.03;102704.47;5010334;28;20042;-55
2021/04/04 02:09:06;;;;;;;11.80;2.90;;;;;;;5.47;60.61;102708.81;4993813;28;20046;-55
2021/04/04 02:11:33;;;;;;;18.27;3.13;;;;;;;5.45;60.60;102702.75;5011553;28;20121;-54
2021/04/04 02:14:06;;;;;;;17.35;3.00;;;;;;;5.42;60.84;102706.25;5009247;28;20046;-53
2021/04/04 02:16:35;;;;;;;10.70;2.87;;;;;;;5.49;60.56;102701.81;5010919;28;20049;-54
2021/04/04 02:19:03;;;;;;;12.05;2.70;;;;;;;5.46;60.28;102696.66;5011183;28;20053;-55
2021/04/04 02:21:30;;;;;;;12.02;3.47;;;;;;;5.46;60.23;102694.91;5010093;28;20065;-54
2021/04/04 02:24:01;;;;;;;14.52;3.40;;;;;;;5.47;60.30;102691.41;5010119;28;20054;-54
2021/04/04 02:26:31;;;;;;;12.65;2.63;;;;;;;5.49;60.74;102694.84;5009657;28;20510;-53
2021/04/04 02:28:59;;;;;;;16.55;3.30;;;;;;;5.49;60.66;102689.63;5009595;28;20045;-54
2021/04/04 02:31:30;;;;;;;12.80;2.88;;;;;;;5.51;60.25;102690.50;4992851;28;20129;-53
2021/04/04 02:34:01;;;;;;;16.38;3.42;;;;;;;5.51;60.60;102693.09;4993656;28;20150;-55
2021/04/04 02:36:29;;;;;;;14.60;3.10;;;;;;;5.53;60.61;102686.09;5026387;28;20649;-54
2021/04/04 02:39:07;;;;;;;19.80;3.25;;;;;;;5.47;61.02;102682.69;5009971;28;20514;-55
2021/04/04 02:41:34;;;;;;;15.85;3.08;;;;;;;5.39;61.07;102680.22;5011524;28;20050;-55
2021/04/04 02:44:03;;;;;;;13.50;2.83;;;;;;;5.43;60.95;102679.28;5009829;28;20050;-55
2021/04/04 02:46:29;;;;;;;14.20;2.90;;;;;;;5.39;60.96;102682.84;5011063;28;20590;-55
2021/04/04 02:48:59;;;;;;;10.25;2.85;;;;;;;5.38;60.64;102674.13;5009728;28;20081;-54
2021/04/04 02:51:38;;;;;;;12.52;2.80;;;;;;;5.38;61.24;102679.34;5009969;28;20532;-54
2021/04/04 02:54:06;;;;;;;10.10;3.05;;;;;;;5.39;61.48;102678.47;5009670;28;20141;-55
2021/04/04 02:56:38;;;;;;;9.25;2.38;;;;;;;5.40;61.53;102677.59;5009693;28;20053;-55
2021/04/04 02:59:09;;;;;;;11.43;2.70;;;;;;;5.46;61.52;102681.00;5009498;28;20050;-53
2021/04/04 03:01:36;;;;;;;14.73;2.70;;;;;;;5.46;61.33;102676.63;5009556;28;20054;-54
2021/04/04 03:04:04;;;;;;;15.13;2.72;;;;;;;5.48;61.53;102677.50;5009556;28;20056;-54
2021/04/04 03:06:32;;;;;;;12.00;2.97;;;;;;;5.41;61.27;102670.59;4993804;28;20456;-55
2021/04/04 03:09:01;;;;;;;14.38;2.97;;;;;;;5.58;60.94;102667.78;4993312;28;20065;-55
2021/04/04 03:11:28;;;;;;;14.05;3.00;;;;;;;5.45;61.40;102655.78;5009721;28;20461;-54
2021/04/04 03:13:54;;;;;;;17.77;3.60;;;;;;;5.39;61.65;102672.41;5009666;28;20061;-55
2021/04/04 03:16:21;;;;;;;18.08;3.03;;;;;;;5.47;61.59;102659.22;5008979;28;20137;-55
2021/04/04 03:18:49;;;;;;;13.57;2.72;;;;;;;5.46;61.76;102665.34;5010714;28;20444;-55
2021/04/04 03:21:17;;;;;;;11.95;2.53;;;;;;;5.51;61.18;102668.75;4989811;28;20054;-54
2021/04/04 03:23:46;;;;;;;14.75;2.85;;;;;;;5.54;61.04;102664.34;4989851;28;20057;-53
2021/04/04 03:26:13;;;;;;;16.63;2.97;;;;;;;5.51;61.23;102663.53;4973458;28;20046;-55
2021/04/04 03:28:41;;;;;;;13.23;2.47;;;;;;;5.50;60.90;102653.97;4989392;28;20051;-54
2021/04/04 03:31:09;;;;;;;10.23;2.30;;;;;;;5.42;61.49;102661.91;4988922;28;20054;-54
2021/04/04 03:33:36;;;;;;;12.55;2.50;;;;;;;5.46;61.18;102650.53;5005491;28;20407;-53
2021/04/04 03:36:03;;;;;;;14.23;2.50;;;;;;;5.45;61.32;102651.41;5005584;28;20052;-54
2021/04/04 03:38:30;;;;;;;15.32;2.95;;;;;;;5.48;61.59;102645.28;5013773;28;20053;-56
2021/04/04 03:40:57;;;;;;;13.05;2.95;;;;;;;5.58;61.28;102652.09;5012627;28;20135;-55
2021/04/04 03:43:30;;;;;;;13.40;3.33;;;;;;;5.55;61.15;102653.00;5029168;28;20118;-54
2021/04/04 03:46:00;;;;;;;13.60;3.30;;;;;;;5.52;62.05;102655.69;4996271;28;20052;-55
2021/04/04 03:48:28;;;;;;;9.95;2.20;;;;;;;5.56;61.89;102656.47;5014194;28;20069;-53
2021/04/04 03:50:56;;;;;;;13.63;2.85;;;;;;;5.51;61.88;102655.72;5012318;28;20046;-54
2021/04/04 03:53:26;;;;;;;11.20;2.20;;;;;;;5.59;61.93;102652.09;4996423;28;20060;-55
2021/04/04 03:55:59;;;;;;;11.40;2.67;;;;;;;5.63;62.01;102659.84;5012223;28;20523;-55
2021/04/04 03:58:26;;;;;;;13.20;2.95;;;;;;;5.57;62.51;102653.00;5012198;28;20377;-54
2021/04/04 04:00:54;;;;;;;11.50;2.67;;;;;;;5.48;62.48;102650.50;5012746;28;20045;-55
2021/04/04 04:03:24;;;;;;;14.10;2.35;;;;;;;5.41;63.01;102652.34;4996374;28;20127;-55
2021/04/04 04:05:51;;;;;;;10.95;2.55;;;;;;;5.39;63.13;102641.94;5012359;28;20095;-54
2021/04/04 04:08:19;;;;;;;11.13;2.40;;;;;;;5.38;63.74;102640.19;5011837;28;20050;-54
2021/04/04 04:10:46;;;;;;;11.68;2.35;;;;;;;5.39;63.65;102646.31;5012383;28;20045;-55
2021/04/04 04:13:16;;;;;;;10.48;2.53;;;;;;;5.44;64.19;102659.28;5011646;28;20054;-53
2021/04/04 04:15:43;;;;;;;8.30;1.92;;;;;;;5.47;63.42;102656.59;5012670;28;20183;-53
2021/04/04 04:18:10;;;;;;;10.77;2.50;;;;;;;5.44;63.31;102654.94;5012312;28;20050;-54
2021/04/04 04:20:38;;;;;;;10.80;2.40;;;;;;;5.39;63.56;102656.75;5013400;28;20125;-53
2021/04/04 04:23:06;;;;;;;9.27;2.25;;;;;;;5.39;63.33;102659.34;4995944;28;20049;-52
2021/04/04 04:25:35;;;;;;;12.35;2.55;;;;;;;5.33;63.85;102655.09;4976401;28;20628;-54
2021/04/04 04:28:02;;;;;;;13.23;2.53;;;;;;;5.39;63.67;102651.53;4995675;28;20128;-53
2021/04/04 04:30:29;;;;;;;11.00;2.30;;;;;;;5.35;63.72;102649.84;5011861;28;20133;-55
2021/04/04 04:32:59;;;;;;;10.50;2.40;;;;;;;5.36;64.60;102652.41;5011837;28;20052;-54
2021/04/04 04:35:27;;;;;;;12.02;2.25;;;;;;;5.36;64.32;102652.41;5012080;28;20045;-54
2021/04/04 04:37:53;;;;;;;13.73;2.88;;;;;;;5.33;64.90;102649.88;4995749;28;20049;-55
2021/04/04 04:40:21;;;;;;;11.23;2.30;;;;;;;5.26;64.87;102643.00;5011620;28;20045;-54
2021/04/04 04:42:49;;;;;;;10.02;2.33;;;;;;;5.34;63.94;102638.53;5011821;28;20141;-55
2021/04/04 04:45:24;;;;;;;9.85;2.03;;;;;;;5.35;63.90;102639.41;5011828;28;20037;-54
2021/04/04 04:47:54;;;;;;;10.07;2.20;;;;;;;5.25;63.38;102638.69;5011731;28;20049;-53
2021/04/04 04:50:22;;;;;;;11.60;2.78;;;;;;;5.23;63.73;102630.84;5011320;28;20551;-54
2021/04/04 04:52:49;;;;;;;12.23;2.70;;;;;;;5.30;63.79;102641.22;5011609;28;20054;-54
2021/04/04 04:55:18;;;;;;;12.75;2.60;;;;;;;5.22;62.95;102634.38;5011502;28;20042;-54
2021/04/04 04:57:45;;;;;;;9.30;2.45;;;;;;;5.30;63.13;102636.84;5013071;28;20053;-53
2021/04/04 05:00:13;;;;;;;9.05;2.08;;;;;;;5.31;62.99;102635.13;5012177;28;20069;-55
2021/04/04 05:02:41;;;;;;;12.93;2.25;;;;;;;5.27;63.07;102634.28;5011089;28;20627;-55
2021/04/04 05:05:11;;;;;;;7.85;1.95;;;;;;;5.30;62.70;102631.63;5009040;28;20088;-54
2021/04/04 05:07:41;;;;;;;12.80;2.90;;;;;;;5.32;62.64;102634.25;5009544;28;20148;-54
2021/04/04 05:10:12;;;;;;;10.27;1.85;;;;;;;5.34;62.48;102633.31;5008991;28;20050;-55
2021/04/04 05:12:45;;;;;;;13.03;2.70;;;;;;;5.32;62.81;102636.84;5011571;28;20073;-55
2021/04/04 05:15:12;;;;;;;11.15;2.30;;;;;;;5.29;62.45;102634.25;5008766;28;20045;-54
2021/04/04 05:17:39;;;;;;;8.82;1.98;;;;;;;5.31;62.22;102632.50;5010533;28;20042;-53
2021/04/04 05:20:08;;;;;;;9.15;1.65;;;;;;;5.29;62.22;102629.03;5010110;28;20056;-54
2021/04/04 05:22:36;;;;;;;13.85;2.67;;;;;;;5.16;62.58;102626.59;5010333;28;20474;-54
2021/04/04 05:25:04;;;;;;;11.02;2.10;;;;;;;5.22;62.17;102623.94;5009125;28;20125;-53
2021/04/04 05:27:33;;;;;;;5.72;1.80;;;;;;;5.30;62.52;102625.56;5009334;28;20046;-54
2021/04/04 05:30:01;;;;;;;12.23;2.40;;;;;;;5.38;62.40;102628.91;5009832;28;20153;-55
2021/04/04 05:32:28;;;;;;;11.32;2.17;;;;;;;5.32;62.24;102623.81;5008953;28;20447;-55
2021/04/04 05:34:55;;;;;;;10.93;1.90;;;;;;;5.37;62.12;102621.97;5007926;28;20046;-55
2021/04/04 05:37:21;;;;;;;11.63;2.33;;;;;;;5.37;62.05;102624.56;5008493;28;20049;-54
2021/04/04 05:39:48;;;;;;;11.43;1.95;;;;;;;5.36;62.24;102628.09;4993001;28;20073;-55
2021/04/04 05:42:18;;;;;;;12.00;1.92;;;;;;;5.39;61.75;102625.44;5008298;28;20498;-54
2021/04/04 05:45:02;;;;;;;10.77;1.88;;;;;;;5.46;62.15;102627.06;5008193;28;20042;-55
2021/04/04 05:47:43;;;;;;;13.30;2.47;;;;;;;5.46;61.96;102616.59;5007156;28;20129;-54
2021/04/04 05:50:19;;;;;;;10.68;2.25;;;;;;;5.48;62.04;102629.63;5009822;28;20125;-55
2021/04/04 05:53:05;;;;;;;10.60;2.50;;;;;;;5.53;61.99;102628.66;4993651;28;20054;-55
2021/04/04 05:56:00;;;;;;;11.45;2.50;;;;;;;5.48;61.73;102627.91;5008391;28;20045;-54
2021/04/04 05:58:36;;;;;;;11.23;2.20;;;;;;;5.41;62.10;102627.13;5010597;28;20038;-56
2021/04/04 06:01:15;;;;;;;9.77;2.05;;;;;;;5.44;61.91;102634.06;5025702;28;20125;-55
2021/04/04 06:03:56;;;;;;;11.27;2.15;;;;;;;5.40;62.33;102628.00;5009835;28;20046;-54
2021/04/04 06:07:00;;;;;;;8.32;2.30;;;;;;;5.49;62.09;102627.00;5009464;28;20053;-56
2021/04/04 06:09:45;;;;;;;9.35;1.92;;;;;;;5.55;61.70;102624.31;5010691;28;20073;-52
2021/04/04 06:12:17;;;;;;;10.23;1.90;;;;;;;5.50;61.62;102623.50;5010938;28;20038;-52
2021/04/04 06:15:00;;;;;;;12.70;2.42;;;;;;;5.41;62.41;102618.41;5010109;28;20455;-55
2021/04/04 06:17:29;;;;;;;12.90;2.47;;;;;;;5.49;62.11;102624.38;4991224;28;20050;-54
2021/04/04 06:20:09;;;;;;;8.90;1.83;;;;;;;5.56;61.47;102622.53;5006932;28;20595;-53
2021/04/04 06:22:37;;;;;;;11.43;2.20;;;;;;;5.49;61.77;102628.75;4992056;28;20581;-52
2021/04/04 06:25:09;;;;;;;7.05;1.70;;;;;;;5.48;62.01;102629.63;5007192;28;20076;-54
2021/04/04 06:28:05;;;;;;;11.10;2.10;;;;;;;5.53;62.09;102625.22;4992025;28;20510;-53
2021/04/04 06:30:47;;;;;;;9.88;2.33;;;;;;;5.51;61.94;102627.84;5005916;28;20506;-55
2021/04/04 06:33:22;;;;;;;12.67;2.13;;;;;;;5.57;61.63;102622.50;5009855;28;20054;-54
2021/04/04 06:36:00;;;;;;;12.80;2.42;;;;;;;5.54;61.77;102629.56;5009688;28;20485;-55
2021/04/04 06:39:05;;;;;;;11.23;2.05;;;;;;;5.56;61.38;102617.31;4993409;28;20125;-53
2021/04/04 06:41:51;;;;;;;11.02;2.00;;;;;;;5.52;61.46;102624.34;5009857;28;20081;-55
2021/04/04 06:44:35;;;;;;;11.07;2.22;;;;;;;5.64;61.48;102623.28;5011164;28;20386;-54
2021/04/04 06:47:39;;;;;;;9.07;2.35;;;;;;;5.66;61.39;102621.53;5009374;28;20053;-55
2021/04/04 06:50:23;;;;;;;;;;;;;;;5.72;61.55;102625.78;5010851;28;20437;-54
2021/04/04 06:53:29;;;;;;;6.10;1.55;;;;;;;5.65;61.16;102626.78;5009828;28;19956;-54
2021/04/04 06:56:32;;;;;;;11.38;2.30;;;;;;;5.57;61.54;102629.50;4980553;28;20064;-54
2021/04/04 06:59:07;;;;;;;10.75;2.15;;;;;;;5.64;62.12;102625.03;5009747;28;20041;-53
2021/04/04 07:01:59;;;;;;;12.35;2.33;;;;;;;5.73;61.93;102624.91;4974516;28;20061;-55
2021/04/04 07:04:32;;;;;;;8.18;2.03;;;;;;;5.75;61.72;102625.72;4999715;28;20530;-54
2021/04/04 07:07:36;;;;;;;10.15;1.80;;;;;;;5.75;61.80;102633.56;4993261;28;20058;-54
2021/04/04 07:10:32;;;;;;;12.45;1.90;;;;;;;5.73;61.45;102619.69;4993159;28;20038;-55
2021/04/04 07:13:21;;;;;;;11.23;2.42;;;;;;;5.80;61.63;102620.44;5005320;28;20149;-52
2021/04/04 07:16:06;;;;;;;10.48;2.45;;;;;;;5.73;62.51;102619.69;5010269;28;20048;-53
2021/04/04 07:18:47;;;;;;;8.88;2.00;;;;;;;5.77;62.27;102610.91;5010849;28;20488;-54
2021/04/04 07:21:38;;;;;;;10.60;2.30;;;;;;;5.75;62.48;102607.44;4997098;28;20472;-55
2021/04/04 07:24:37;;;;;;;12.07;1.92;;;;;;;5.86;62.18;102599.44;4997252;28;20046;-54
2021/04/04 07:27:08;;;;;;;11.80;2.90;;;;;;;5.86;62.51;102595.09;5002148;28;20521;-54
2021/04/04 07:30:00;;;;;;;11.85;2.40;;;;;;;5.96;62.20;102602.72;5014674;28;20510;-55
2021/04/04 07:32:35;;;;;;;10.57;1.90;;;;;;;5.99;62.50;102607.97;5013043;28;20038;-53
2021/04/04 07:35:15;;;;;;;12.30;2.53;;;;;;;6.09;62.45;102606.88;5009948;28;20051;-54
2021/04/04 07:37:59;;;;;;;10.57;2.00;;;;;;;6.14;61.88;102606.81;4996526;28;20566;-55
2021/04/04 07:40:59;;;;;;;12.50;2.70;;;;;;;6.09;62.27;102601.66;4996631;28;20042;-54
2021/04/04 07:43:41;;;;;;;11.55;2.38;;;;;;;6.15;62.51;102596.34;5014249;28;20505;-53
2021/04/04 07:46:22;;;;;;;12.20;2.30;;;;;;;6.20;62.27;102596.25;5012595;28;20042;-55
2021/04/04 07:49:27;;;;;;;13.75;2.45;;;;;;;6.11;63.07;102605.13;5012973;28;20046;-55
2021/04/04 07:51:58;;;;;;;11.82;2.20;;;;;;;6.08;63.35;102607.78;5005536;28;20073;-55
2021/04/04 07:54:48;;;;;;;11.57;2.60;;;;;;;6.14;64.21;102605.06;5012312;28;20046;-55
2021/04/04 07:57:22;;;;;;;11.93;2.50;;;;;;;6.07;65.06;102603.47;5006387;28;20124;-54
2021/04/04 07:59:52;;;;;;;9.10;2.13;;;;;;;6.14;64.60;102599.84;5012664;28;20061;-55
2021/04/04 08:02:39;;;;;;;10.13;2.78;;;;;;;6.19;64.69;102602.34;5013135;28;20522;-55
2021/04/04 08:05:08;;;;;;;12.75;3.00;;;;;;;6.18;64.94;102600.66;5011892;28;20045;-54
2021/04/04 08:07:39;;;;;;;11.07;2.40;;;;;;;6.28;65.22;102591.72;4996806;28;20054;-54
2021/04/04 08:10:17;;;;;;;9.80;2.80;;;;;;;6.33;65.19;102602.13;5013658;28;20038;-55
2021/04/04 08:13:26;;;;;;;14.30;2.55;;;;;;;6.39;64.39;102604.59;5012922;28;20108;-55
2021/04/04 08:16:07;;;;;;;10.50;2.38;;;;;;;6.33;65.47;102609.97;4992655;28;20065;-55
2021/04/04 08:18:42;;;;;;;11.13;2.35;;;;;;;6.39;65.12;102615.94;4993938;28;20074;-55
2021/04/04 08:21:32;;;;;;;13.68;2.78;;;;;;;6.46;65.40;102619.25;4992521;28;20128;-55
2021/04/04 08:24:07;;;;;;;12.68;2.92;;;;;;;6.34;67.02;102620.38;5008500;28;20050;-55
2021/04/04 08:26:53;;;;;;;12.32;2.67;;;;;;;6.42;67.68;102615.88;5008424;28;20042;-55
2021/04/04 08:29:31;;;;;;;12.40;2.83;;;;;;;6.44;67.48;102613.22;4987908;28;20560;-55
2021/04/04 08:32:07;;;;;;;11.65;2.63;;;;;;;6.42;66.91;102610.63;5011683;28;20396;-53
2021/04/04 08:34:56;;;;;;;12.27;2.78;;;;;;;6.47;65.95;102605.31;5013641;28;20401;-55
2021/04/04 08:37:32;;;;;;;8.73;2.70;;;;;;;6.57;66.09;102609.47;4996383;28;20053;-53
2021/04/04 08:40:02;;;;;;;11.35;3.35;;;;;;;6.47;64.75;102614.91;4996026;28;20041;-54
2021/04/04 08:42:30;;;;;;;11.05;2.97;;;;;;;6.42;65.78;102612.38;5011662;28;20377;-53
2021/04/04 08:45:07;;;;;;;8.25;2.88;;;;;;;6.55;64.40;102603.41;4995048;28;20072;-55
2021/04/04 08:47:45;;;;;;;10.27;2.40;;;;;;;6.53;64.73;102605.19;4995348;28;20123;-54
2021/04/04 08:50:19;;;;;;;8.10;2.50;;;;;;;6.65;64.67;102605.84;5007906;28;20046;-53
2021/04/04 08:52:55;;;;;;;10.10;2.83;;;;;;;6.72;64.54;102596.97;4991449;28;20460;-55
2021/04/04 08:55:31;;;;;;;8.32;2.70;;;;;;;6.67;64.11;102609.28;4996206;28;20121;-54
2021/04/04 08:58:07;;;;;;;10.85;2.85;;;;;;;6.46;63.59;102600.09;5012863;28;20057;-55
2021/04/04 09:00:36;;;;;;;11.50;2.70;;;;;;;6.51;64.00;102601.72;5011865;28;20050;-52
2021/04/04 09:03:02;;;;;;;7.50;2.60;;;;;;;6.67;62.78;102599.69;5011574;28;20137;-56
2021/04/04 09:05:36;;;;;;;5.97;2.58;;;;;;;6.55;60.46;102597.31;5011483;28;20771;-55
2021/04/04 09:08:10;;;;;;;5.57;2.53;;;;;;;6.62;60.80;102595.44;5010392;28;20498;-55
2021/04/04 09:10:38;;;;;;;7.82;2.35;;;;;;;6.67;60.22;102598.84;5011297;28;20073;-55
2021/04/04 09:13:09;;;;;;;9.20;2.67;;;;;;;6.83;59.96;102591.50;5011156;28;20042;-55
2021/04/04 09:15:44;;;;;;;8.27;2.63;;;;;;;6.77;60.19;102584.66;5011340;28;20046;-55
2021/04/04 09:18:11;;;;;;;6.07;3.03;;;;;;;6.87;60.31;102588.81;5011964;28;20392;-56
2021/04/04 09:20:44;;;;;;;9.63;2.97;;;;;;;6.94;59.47;102586.91;5012215;28;20061;-55
2021/04/04 09:23:21;;;;;;;11.00;2.83;;;;;;;6.83;60.39;102584.53;4991691;28;20059;-56
2021/04/04 09:26:02;;;;;;;8.55;2.88;;;;;;;6.77;61.65;102582.03;4976206;28;20057;-56
2021/04/04 09:28:31;;;;;;;9.18;3.35;;;;;;;6.79;61.74;102584.63;4991268;28;20388;-55
2021/04/04 09:31:00;;;;;;;8.05;2.97;;;;;;;6.77;61.05;102580.28;4990402;28;20124;-55
2021/04/04 09:33:35;;;;;;;8.85;3.53;;;;;;;6.72;61.92;102579.53;5007919;28;20133;-56
2021/04/04 09:36:08;;;;;;;9.77;3.20;;;;;;;6.80;61.45;102576.72;4994284;28;20506;-55
2021/04/04 09:38:40;;;;;;;7.97;3.17;;;;;;;6.78;61.40;102581.16;5010436;28;20416;-56
2021/04/04 09:41:08;;;;;;;7.63;3.22;;;;;;;6.82;61.42;102580.19;5010547;28;20049;-56
2021/04/04 09:43:56;;;;;;;8.82;3.15;;;;;;;6.88;60.96;102580.03;5010609;28;20115;-55
2021/04/04 09:46:23;;;;;;;9.43;3.95;;;;;;;6.79;60.49;102582.00;5012043;28;20428;-55
2021/04/04 09:48:53;;;;;;;6.18;2.67;;;;;;;6.87;60.50;102580.06;5011918;28;20124;-56
2021/04/04 09:51:23;;;;;;;7.38;3.08;;;;;;;6.71;60.87;102572.56;5009773;28;20619;-55
2021/04/04 09:53:59;;;;;;;9.40;3.63;;;;;;;6.79;60.95;102582.88;5026066;28;20120;-55
2021/04/04 09:56:33;;;;;;;9.02;3.55;;;;;;;6.72;61.54;102581.28;5010156;28;20076;-55
2021/04/04 09:59:02;;;;;;;7.68;3.60;;;;;;;6.71;61.88;102572.56;5011659;28;20089;-56
2021/04/04 10:01:32;;;;;;;9.05;3.10;;;;;;;6.83;61.80;102579.31;4994006;28;20444;-54
2021/04/04 10:04:03;;;;;;;9.48;3.13;;;;;;;6.82;61.39;102569.72;5008827;28;20088;-55
2021/04/04 10:06:37;;;;;;;7.38;3.67;;;;;;;6.82;62.15;102571.50;5023803;28;20054;-55
2021/04/04 10:09:14;;;;;;;8.55;3.30;;;;;;;6.84;62.17;102573.16;5009378;28;20038;-55
2021/04/04 10:11:41;;;;;;;10.32;3.55;;;;;;;6.84;62.24;102567.91;4993249;28;20041;-55
2021/04/04 10:14:13;;;;;;;8.68;3.58;;;;;;;6.97;61.96;102560.69;5009890;28;20037;-56
2021/04/04 10:16:40;;;;;;;7.95;2.90;;;;;;;6.91;62.09;102559.06;5010004;28;20500;-56
2021/04/04 10:19:12;;;;;;;8.77;3.08;;;;;;;6.99;61.40;102558.03;5026314;28;20100;-56
2021/04/04 10:21:57;;;;;;;7.55;3.05;;;;;;;6.98;60.60;102540.59;5010305;28;20045;-54
2021/04/04 10:24:39;;;;;;;11.57;2.80;;;;;;;6.91;60.05;102543.38;5010125;28;20092;-56
2021/04/04 10:27:27;;;;;;;9.45;3.13;;;;;;;7.10;59.64;102541.19;5010317;28;20046;-55
2021/04/04 10:30:18;;;;;;;5.80;2.72;;;;;;;7.09;59.69;102538.63;5010042;28;20049;-55
2021/04/04 10:32:46;;;;;;;6.63;2.22;;;;;;;7.18;58.76;102533.16;5010013;28;20117;-53
2021/04/04 10:35:27;;;;;;;5.63;2.40;;;;;;;7.21;59.20;102530.47;5025943;28;20124;-55
2021/04/04 10:38:03;;;;;;;6.47;2.60;;;;;;;7.34;58.52;102528.41;5010185;28;20420;-55
2021/04/04 10:40:41;;;;;;;6.53;2.40;;;;;;;7.43;58.00;102527.31;5011347;28;20485;-54
2021/04/04 10:43:08;;;;;;;5.25;2.47;;;;;;;7.38;58.37;102529.19;5010105;28;20042;-55
2021/04/04 10:45:56;;;;;;;8.43;2.63;;;;;;;7.39;58.27;102528.28;5010111;28;20057;-55
2021/04/04 10:48:23;;;;;;;6.18;3.00;;;;;;;7.40;57.11;102523.03;4994503;28;20125;-56
2021/04/04 10:50:50;;;;;;;8.95;2.90;;;;;;;7.52;57.23;102524.47;4994795;28;20074;-55
2021/04/04 10:53:19;;;;;;;6.07;2.60;;;;;;;7.59;56.64;102517.31;4994359;28;20096;-54
2021/04/04 10:55:47;;;;;;;9.93;2.85;;;;;;;7.72;57.19;102515.25;4994724;28;20062;-56
2021/04/04 10:58:23;;;;;;;7.32;2.75;;;;;;;7.71;57.09;102513.53;4994300;28;20499;-56
2021/04/04 11:00:54;;;;;;;6.60;2.30;;;;;;;7.54;56.11;102506.97;4995635;28;20128;-56
2021/04/04 11:03:21;;;;;;;6.95;2.55;;;;;;;7.70;56.64;102504.81;4996919;28;20157;-56
2021/04/04 11:05:51;;;;;;;7.07;2.58;;;;;;;7.65;56.83;102501.44;5012801;28;20046;-56
2021/04/04 11:08:18;;;;;;;5.65;2.30;;;;;;;7.75;55.19;102496.81;5013128;28;20164;-56
2021/04/04 11:10:45;;;;;;;7.47;2.72;;;;;;;7.86;55.66;102499.16;4997219;28;20061;-56
2021/04/04 11:13:14;;;;;;;7.38;2.92;;;;;;;7.84;54.99;102493.97;5012771;28;20132;-56
2021/04/04 11:15:51;;;;;;;5.63;2.40;;;;;;;8.00;55.12;102493.53;5013790;28;20042;-56
2021/04/04 11:18:28;;;;;;;9.65;2.50;;;;;;;8.05;54.35;102496.88;5014374;28;20108;-57
2021/04/04 11:20:58;;;;;;;6.03;2.13;;;;;;;8.21;54.10;102478.97;5013494;28;20135;-56
2021/04/04 11:23:25;;;;;;;8.13;2.38;;;;;;;8.18;54.33;102476.41;5013642;28;20042;-57
2021/04/04 11:25:54;;;;;;;5.45;2.10;;;;;;;8.19;53.97;102481.59;5012852;28;20061;-56
2021/04/04 11:28:22;;;;;;;7.50;2.53;;;;;;;8.23;54.01;102471.91;5013202;28;20583;-54
2021/04/04 11:30:49;;;;;;;5.90;2.60;;;;;;;8.29;53.94;102466.50;4996687;28;20067;-55
2021/04/04 11:33:20;;;;;;;5.32;2.33;;;;;;;8.37;53.01;102459.25;4990140;28;20047;-56
2021/04/04 11:36:06;;;;;;;10.02;2.55;;;;;;;8.43;53.43;102460.84;4970363;28;20054;-54
2021/04/04 11:38:52;;;;;;;9.25;2.67;;;;;;;8.43;53.32;102450.34;4968732;28;20047;-56
2021/04/04 11:41:28;;;;;;;7.07;2.38;;;;;;;8.35;53.09;102445.31;4974890;28;20103;-56
2021/04/04 11:44:20;;;;;;;9.52;2.63;;;;;;;8.38;53.43;102452.25;4973948;28;20070;-56
2021/04/04 11:46:54;;;;;;;11.07;3.22;;;;;;;8.36;53.92;102454.06;4973380;28;20110;-57
2021/04/04 11:49:34;;;;;;;7.03;2.90;;;;;;;8.54;52.89;102450.03;4969751;28;20059;-57
2021/04/04 11:52:07;;;;;;;10.48;3.65;;;;;;;8.38;52.84;102454.84;4970184;28;20031;-57
2021/04/04 11:54:46;;;;;;;8.57;2.95;;;;;;;8.40;53.20;102447.81;4955442;28;20051;-57
2021/04/04 11:57:26;;;;;;;9.35;3.13;;;;;;;8.45;53.14;102449.44;4955206;28;20134;-57
2021/04/04 12:00:23;;;;;;;7.05;3.03;;;;;;;8.51;52.66;102439.63;4970531;28;20051;-55